Terminal Aerodrome Forecast
Issued by NWS Cleveland, OH

Home | Current Version | Previous Version | Graphics & Text | Print | Product List | Glossary On
Versions: 1 2 3 4 5 6 7 8 9 10 11 12 13 14 15 16
000
FTUS41 KCLE 191700
TAFMFD
TAF
KMFD 191720Z 1918/2018 17016G24KT 5SM -SN OVC035
      TEMPO 1918/1919 3SM -SN BR OVC025
     FM191900 17016G24KT P6SM -SN SCT045 OVC080
     FM200000 23018G28KT 6SM -SN BR SCT015 OVC035
      TEMPO 2000/2004 4SM -SN BR OVC015
     FM200400 25014G22KT P6SM OVC025
     FM201200 24012KT P6SM SCT025 OVC050=

USA.gov is the U.S. government's official web portal to all federal, state and local government web resources and services.